createdAt,value
2019-04-03T00:03:59.909Z,14.58
2019-04-03T00:06:29.292Z,14.57
2019-04-03T00:08:58.766Z,14.54
2019-04-03T00:11:28.056Z,14.63
2019-04-03T00:13:57.605Z,14.58
2019-04-03T00:16:26.810Z,14.54
2019-04-03T00:18:56.085Z,14.55
2019-04-03T00:21:25.319Z,14.53
2019-04-03T00:23:54.623Z,14.63
2019-04-03T00:26:24.108Z,14.65
2019-04-03T00:28:53.493Z,14.64
2019-04-03T00:31:23.352Z,14.51
2019-04-03T00:33:53.957Z,14.46
2019-04-03T00:36:23.791Z,14.46
2019-04-03T00:38:54.765Z,14.36
2019-04-03T00:41:25.229Z,14.41
2019-04-03T00:43:55.060Z,14.47
2019-04-03T00:46:25.476Z,14.45
2019-04-03T00:48:55.856Z,14.41
2019-04-03T00:51:27.501Z,14.43
2019-04-03T00:53:58.005Z,14.47
2019-04-03T00:56:28.014Z,14.49
2019-04-03T01:01:32.179Z,14.30
2019-04-03T01:04:01.472Z,14.35
2019-04-03T01:06:31.047Z,14.41
2019-04-03T01:09:00.246Z,14.36
2019-04-03T01:11:30.595Z,14.36
2019-04-03T01:14:01.845Z,14.41
2019-04-03T01:16:33.086Z,14.43
2019-04-03T01:19:05.114Z,14.45
2019-04-03T01:21:33.352Z,14.35
2019-04-03T01:24:02.545Z,14.36
2019-04-03T01:26:31.903Z,14.33
2019-04-03T01:29:01.109Z,14.35
2019-04-03T01:31:30.385Z,14.44
2019-04-03T01:33:59.973Z,14.53
2019-04-03T01:36:29.249Z,14.54
2019-04-03T01:38:58.457Z,14.52
2019-04-03T01:41:27.736Z,14.56
2019-04-03T01:43:56.934Z,14.55
2019-04-03T01:46:27.630Z,14.46
2019-04-03T01:48:58.431Z,14.36
2019-04-03T01:51:29.745Z,14.36
2019-04-03T01:53:59.328Z,14.25
2019-04-03T01:56:28.520Z,14.30
2019-04-03T01:58:58.107Z,14.27
2019-04-03T02:01:27.312Z,14.21
2019-04-03T02:03:56.581Z,14.28
2019-04-03T02:06:25.898Z,14.38
2019-04-03T02:08:55.119Z,14.40
2019-04-03T02:11:24.321Z,14.41
2019-04-03T02:13:53.589Z,14.30
2019-04-03T02:16:23.209Z,14.17
2019-04-03T02:18:55.460Z,14.15
2019-04-03T02:21:27.205Z,14.21
2019-04-03T02:23:55.823Z,14.20
2019-04-03T02:26:24.995Z,14.21
2019-04-03T02:28:54.261Z,14.21
2019-04-03T02:31:23.463Z,14.15
2019-04-03T02:33:52.743Z,14.16
2019-04-03T02:36:21.947Z,14.15
2019-04-03T02:38:51.541Z,14.19
2019-04-03T02:41:22.372Z,14.11
2019-04-03T02:43:51.887Z,14.08
2019-04-03T02:46:22.568Z,14.00
2019-04-03T02:48:51.922Z,13.95
2019-04-03T02:51:21.129Z,13.94
2019-04-03T02:53:50.410Z,13.96
2019-04-03T02:56:19.590Z,13.78
2019-04-03T02:58:48.864Z,13.77
2019-04-03T03:01:18.078Z,13.86
2019-04-03T03:03:49.434Z,13.98
2019-04-03T03:06:18.428Z,14.06
2019-04-03T03:09:27.070Z,14.09
2019-04-03T03:12:35.650Z,14.05
2019-04-03T03:15:45.017Z,14.04
2019-04-03T03:18:15.744Z,14.03
2019-04-03T03:27:16.769Z,14.15
2019-04-03T03:30:39.624Z,14.12
2019-04-03T03:36:44.685Z,14.08
2019-04-03T03:42:10.844Z,13.85
2019-04-03T03:48:15.195Z,13.88
2019-04-03T03:51:24.294Z,13.74
2019-04-03T03:54:32.953Z,13.69
2019-04-03T03:57:41.843Z,13.61
2019-04-03T04:00:52.331Z,13.73
2019-04-03T04:04:01.058Z,13.63
2019-04-03T04:06:34.794Z,13.53
2019-04-03T04:09:22.461Z,13.54
2019-04-03T04:12:12.359Z,13.56
2019-04-03T04:14:41.966Z,13.56
2019-04-03T04:17:15.492Z,13.62
2019-04-03T04:19:43.131Z,13.55
2019-04-03T04:22:15.604Z,13.57
2019-04-03T04:24:44.409Z,13.72
2019-04-03T04:27:13.853Z,13.78
2019-04-03T04:32:37.872Z,13.76
2019-04-03T04:35:10.355Z,13.74
2019-04-03T04:37:40.134Z,13.83
2019-04-03T04:40:09.993Z,13.78
2019-04-03T04:42:39.879Z,13.86
2019-04-03T04:45:09.797Z,13.89
2019-04-03T04:47:40.148Z,13.92
2019-04-03T04:50:09.352Z,13.89
2019-04-03T04:52:38.635Z,13.91
2019-04-03T04:55:08.204Z,13.89
2019-04-03T04:57:41.008Z,13.87
2019-04-03T05:00:09.794Z,13.80
2019-04-03T05:02:39.096Z,13.73
2019-04-03T05:05:09.181Z,13.73
2019-04-03T05:07:39.304Z,13.73
2019-04-03T05:10:08.619Z,13.70
2019-04-03T05:12:39.086Z,13.69
2019-04-03T05:15:48.462Z,13.73
2019-04-03T05:18:17.707Z,13.78
2019-04-03T05:20:49.077Z,13.86
2019-04-03T05:23:18.772Z,13.78
2019-04-03T05:25:47.977Z,13.56
2019-04-03T05:28:17.236Z,13.53
2019-04-03T05:30:49.293Z,13.55
2019-04-03T05:33:18.573Z,13.57
2019-04-03T05:35:47.782Z,13.71
2019-04-03T05:38:17.073Z,13.78
2019-04-03T05:40:46.270Z,13.90
2019-04-03T05:43:15.948Z,14.02
2019-04-03T05:45:45.323Z,14.09
2019-04-03T05:48:17.688Z,14.07
2019-04-03T05:53:41.254Z,14.08
2019-04-03T05:56:12.590Z,14.13
2019-04-03T05:58:53.774Z,14.21
2019-04-03T06:01:12.672Z,14.20
2019-04-03T06:03:44.895Z,14.22
2019-04-03T06:06:14.421Z,14.21
2019-04-03T06:08:43.802Z,14.30
2019-04-03T06:11:13.253Z,14.32
2019-04-03T06:13:42.500Z,14.35
2019-04-03T06:16:11.779Z,14.39
2019-04-03T06:18:40.985Z,14.39
2019-04-03T06:21:10.487Z,14.54
2019-04-03T06:23:41.191Z,14.44
2019-04-03T06:26:10.471Z,14.49
2019-04-03T06:28:42.417Z,14.66
2019-04-03T06:31:10.671Z,14.70
2019-04-03T06:33:40.071Z,14.76
2019-04-03T06:36:09.334Z,14.76
2019-04-03T06:38:38.763Z,14.68
2019-04-03T06:41:09.653Z,14.73
2019-04-03T06:43:38.927Z,14.84
2019-04-03T06:46:09.839Z,14.90
2019-04-03T06:48:39.196Z,15.01
2019-04-03T06:51:09.269Z,15.05
2019-04-03T06:53:38.445Z,15.12
2019-04-03T06:56:08.927Z,15.17
2019-04-03T06:58:40.191Z,15.22
2019-04-03T07:01:09.697Z,15.28
2019-04-03T07:03:39.229Z,15.31
2019-04-03T07:06:08.979Z,15.42
2019-04-03T07:08:41.108Z,15.35
2019-04-03T07:11:22.853Z,15.30
2019-04-03T07:13:42.099Z,15.39
2019-04-03T07:16:11.673Z,15.42
2019-04-03T07:18:42.320Z,15.46
2019-04-03T07:23:46.054Z,15.80
2019-04-03T07:26:15.345Z,15.95
2019-04-03T07:28:44.554Z,15.98
2019-04-03T07:31:13.857Z,16.04
2019-04-03T07:33:43.068Z,16.07
2019-04-03T07:36:12.334Z,16.29
2019-04-03T07:38:41.643Z,16.57
2019-04-03T07:41:10.846Z,16.78
2019-04-03T07:43:40.326Z,16.99
2019-04-03T07:46:09.510Z,17.14
2019-04-03T07:48:38.869Z,17.21
2019-04-03T07:51:08.461Z,16.94
2019-04-03T07:53:39.220Z,16.67
2019-04-03T07:56:08.816Z,16.76
2019-04-03T07:58:38.105Z,17.07
2019-04-03T08:01:09.545Z,17.30
2019-04-03T08:03:39.204Z,17.55
2019-04-03T08:06:08.415Z,17.75
2019-04-03T08:08:37.619Z,17.94
2019-04-03T08:11:07.011Z,18.06
2019-04-03T08:13:38.387Z,18.09
2019-04-03T08:16:07.306Z,18.00
2019-04-03T08:18:36.516Z,17.92
2019-04-03T08:21:05.997Z,17.77
2019-04-03T08:23:36.722Z,18.03
2019-04-03T08:26:06.215Z,18.12
2019-04-03T08:28:35.438Z,18.13
2019-04-03T08:34:00.172Z,18.49
2019-04-03T08:36:29.558Z,18.69
2019-04-03T08:39:00.587Z,18.79
2019-04-03T08:41:48.940Z,18.62
2019-04-03T08:44:18.355Z,18.62
2019-04-03T08:47:06.687Z,18.44
2019-04-03T08:49:36.508Z,18.44
2019-04-03T08:52:06.179Z,18.45
2019-04-03T08:54:36.722Z,18.53
2019-04-03T08:57:25.013Z,18.74
2019-04-03T08:59:54.295Z,18.74
2019-04-03T09:02:23.505Z,18.84
2019-04-03T09:04:52.948Z,18.80
2019-04-03T09:07:24.634Z,18.67
2019-04-03T09:09:53.218Z,18.46
2019-04-03T09:12:22.404Z,18.30
2019-04-03T09:17:45.809Z,18.62
2019-04-03T09:20:35.566Z,18.66
2019-04-03T09:23:05.369Z,18.66
2019-04-03T09:25:36.003Z,18.52
2019-04-03T09:28:12.675Z,18.34
2019-04-03T09:30:41.820Z,18.43
2019-04-03T09:33:11.256Z,18.58
2019-04-03T09:35:42.817Z,18.60
2019-04-03T09:38:11.829Z,18.71
2019-04-03T09:40:41.352Z,18.90
2019-04-03T09:43:10.654Z,19.14
2019-04-03T09:46:00.641Z,19.41
2019-04-03T09:48:41.855Z,19.41
2019-04-03T09:51:11.129Z,19.38
2019-04-03T09:53:40.400Z,19.33
2019-04-03T09:56:28.920Z,19.39
2019-04-03T09:58:58.581Z,19.56
2019-04-03T10:01:27.757Z,19.35
2019-04-03T10:03:57.020Z,19.20
2019-04-03T10:06:26.446Z,19.14
2019-04-03T10:08:57.210Z,18.99
2019-04-03T10:11:26.415Z,19.08
2019-04-03T10:13:57.494Z,19.20
2019-04-03T10:16:26.600Z,19.38
2019-04-03T10:18:55.867Z,19.58
2019-04-03T10:21:44.242Z,19.85
2019-04-03T10:24:13.493Z,20.07
2019-04-03T10:26:42.698Z,19.82
2019-04-03T10:29:12.033Z,19.68
2019-04-03T10:31:41.640Z,19.60
2019-04-03T10:34:14.447Z,19.77
2019-04-03T10:36:43.779Z,19.94
2019-04-03T10:39:15.949Z,20.11
2019-04-03T10:41:46.217Z,20.17
2019-04-03T10:44:15.475Z,20.22
2019-04-03T10:46:44.665Z,20.29
2019-04-03T10:49:14.020Z,20.36
2019-04-03T10:51:43.863Z,20.32
2019-04-03T10:54:14.595Z,20.27
2019-04-03T10:56:44.120Z,20.42
2019-04-03T10:59:17.944Z,20.54
2019-04-03T11:01:46.100Z,20.55
2019-04-03T11:06:50.507Z,20.63
2019-04-03T11:09:19.929Z,20.39
2019-04-03T11:11:49.129Z,20.30
2019-04-03T11:14:18.698Z,20.13
2019-04-03T11:16:49.324Z,20.13
2019-04-03T11:19:19.815Z,20.06
2019-04-03T11:21:49.753Z,20.02
2019-04-03T11:24:20.451Z,20.01
2019-04-03T11:26:51.762Z,19.80
2019-04-03T11:29:20.742Z,19.72
2019-04-03T11:34:44.628Z,19.84
2019-04-03T11:37:13.898Z,20.03
2019-04-03T11:39:45.656Z,19.99
2019-04-03T11:42:23.886Z,19.89
2019-04-03T11:44:45.207Z,19.90
2019-04-03T11:47:14.764Z,19.68
2019-04-03T11:49:44.514Z,19.74
2019-04-03T11:52:13.697Z,19.91
2019-04-03T11:55:01.894Z,20.16
2019-04-03T11:57:31.420Z,20.23
2019-04-03T12:00:01.081Z,20.14
2019-04-03T12:02:30.356Z,20.09
2019-04-03T12:05:01.330Z,20.12
2019-04-03T12:07:30.589Z,20.10
2019-04-03T12:10:02.785Z,20.24
2019-04-03T12:12:30.775Z,20.39
2019-04-03T12:14:59.961Z,20.54
2019-04-03T12:17:30.306Z,20.74
2019-04-03T12:20:00.183Z,20.82
2019-04-03T12:22:29.490Z,20.85
2019-04-03T12:24:58.651Z,20.87
2019-04-03T12:27:27.910Z,20.83
2019-04-03T12:29:57.097Z,20.89
2019-04-03T12:32:36.660Z,20.99
2019-04-03T12:34:57.553Z,20.98
2019-04-03T12:37:28.225Z,21.12
2019-04-03T12:39:58.235Z,21.31
2019-04-03T12:42:28.816Z,21.40
2019-04-03T12:44:59.835Z,21.48
2019-04-03T12:47:30.404Z,21.47
2019-04-03T12:49:59.856Z,21.50
2019-04-03T12:52:29.091Z,21.33
2019-04-03T12:54:58.672Z,21.13
2019-04-03T12:57:28.240Z,21.13
2019-04-03T12:59:57.847Z,21.07
2019-04-03T13:02:28.417Z,21.02
2019-04-03T13:05:00.240Z,21.08
2019-04-03T13:07:28.639Z,21.20
2019-04-03T13:09:57.970Z,21.40
2019-04-03T13:12:27.895Z,21.47
2019-04-03T13:14:58.264Z,21.45
2019-04-03T13:17:27.841Z,21.55
2019-04-03T13:20:03.215Z,21.67
2019-04-03T13:22:29.909Z,21.63
2019-04-03T13:25:00.635Z,21.66
2019-04-03T13:27:32.370Z,21.48
2019-04-03T13:30:02.449Z,21.43
2019-04-03T13:32:32.173Z,21.48
2019-04-03T13:35:04.224Z,21.42
2019-04-03T13:37:32.377Z,21.30
2019-04-03T13:40:05.019Z,21.27
2019-04-03T13:42:32.566Z,21.20
2019-04-03T13:45:01.827Z,21.07
2019-04-03T13:47:31.013Z,21.05
2019-04-03T13:50:03.313Z,21.10
2019-04-03T13:52:40.152Z,20.95
2019-04-03T13:55:03.797Z,20.81
2019-04-03T13:57:33.706Z,20.83
2019-04-03T14:02:59.622Z,20.80
2019-04-03T14:05:32.331Z,20.77
2019-04-03T14:08:00.477Z,20.77
2019-04-03T14:10:31.213Z,20.78
2019-04-03T14:13:00.396Z,20.83
2019-04-03T14:15:30.090Z,20.84
2019-04-03T14:17:59.332Z,20.83
2019-04-03T14:21:08.277Z,20.73
2019-04-03T14:23:40.622Z,20.63
2019-04-03T14:26:13.414Z,20.60
2019-04-03T14:28:42.094Z,20.42
2019-04-03T14:31:12.842Z,20.31
2019-04-03T14:33:45.677Z,20.30
2019-04-03T14:36:13.611Z,20.28
2019-04-03T14:38:44.275Z,20.25
2019-04-03T14:41:13.534Z,20.18
2019-04-03T14:43:43.054Z,20.09
2019-04-03T14:46:12.329Z,20.03
2019-04-03T14:48:41.634Z,19.92
2019-04-03T14:51:12.168Z,19.84
2019-04-03T14:53:41.850Z,19.83
2019-04-03T14:56:11.507Z,19.89
2019-04-03T14:58:42.551Z,19.88
2019-04-03T15:01:13.429Z,19.80
2019-04-03T15:03:42.594Z,19.72
2019-04-03T15:06:12.362Z,19.69
2019-04-03T15:08:42.793Z,19.73
2019-04-03T15:11:12.430Z,19.77
2019-04-03T15:13:43.183Z,19.82
2019-04-03T15:16:12.422Z,19.86
2019-04-03T15:21:16.530Z,19.81
2019-04-03T15:23:47.428Z,19.84
2019-04-03T15:26:19.421Z,19.82
2019-04-03T15:28:49.707Z,19.69
2019-04-03T15:31:20.246Z,19.67
2019-04-03T15:33:49.798Z,19.64
2019-04-03T15:36:19.437Z,19.61
2019-04-03T15:38:48.980Z,19.55
2019-04-03T15:41:18.357Z,19.50
2019-04-03T15:43:50.748Z,19.52
2019-04-03T15:46:18.725Z,19.48
2019-04-03T15:48:50.999Z,19.31
2019-04-03T15:51:20.950Z,19.18
2019-04-03T15:54:10.470Z,19.18
2019-04-03T15:59:15.312Z,19.19
2019-04-03T16:01:45.710Z,19.17
2019-04-03T16:04:14.946Z,19.10
2019-04-03T16:06:44.216Z,18.99
2019-04-03T16:09:13.480Z,18.87
2019-04-03T16:11:43.078Z,18.78
2019-04-03T16:14:13.695Z,18.74
2019-04-03T16:17:03.507Z,18.74
2019-04-03T16:19:33.406Z,18.79
2019-04-03T16:22:02.733Z,18.94
2019-04-03T16:24:32.452Z,18.98
2019-04-03T16:27:03.006Z,19.04
2019-04-03T16:29:32.630Z,19.00
2019-04-03T16:32:01.922Z,18.95
2019-04-03T16:34:31.434Z,18.89
2019-04-03T16:37:01.184Z,18.89
2019-04-03T16:39:32.948Z,18.88
2019-04-03T16:42:03.764Z,18.78
2019-04-03T16:44:34.533Z,18.74
2019-04-03T16:47:03.867Z,18.69
2019-04-03T16:49:33.520Z,18.62
2019-04-03T16:52:16.444Z,18.48
2019-04-03T16:54:57.423Z,18.41
2019-04-03T16:57:26.728Z,18.41
2019-04-03T16:59:56.794Z,18.36
2019-04-03T17:02:27.946Z,18.24
2019-04-03T17:04:57.374Z,18.13
2019-04-03T17:07:26.649Z,18.08
2019-04-03T17:09:55.868Z,18.02
2019-04-03T17:12:25.074Z,17.96
2019-04-03T17:14:56.328Z,17.92
2019-04-03T17:17:25.831Z,17.91
2019-04-03T17:19:55.594Z,17.87
2019-04-03T17:22:26.029Z,17.88
2019-04-03T17:24:56.412Z,17.85
2019-04-03T17:27:29.693Z,17.85
2019-04-03T17:29:57.290Z,17.85
2019-04-03T17:32:29.064Z,17.85
2019-04-03T17:34:57.474Z,17.75
2019-04-03T17:37:29.680Z,17.75
2019-04-03T17:39:57.722Z,17.71
2019-04-03T17:42:27.002Z,17.62
2019-04-03T17:44:56.206Z,17.51
2019-04-03T17:47:25.543Z,17.46
2019-04-03T17:49:54.750Z,17.45
2019-04-03T17:52:43.567Z,17.45
2019-04-03T17:55:13.172Z,17.39
2019-04-03T17:57:44.548Z,17.34
2019-04-03T18:00:14.420Z,17.29
2019-04-03T18:02:43.647Z,17.24
2019-04-03T18:05:52.293Z,17.18
2019-04-03T18:08:21.831Z,17.11
2019-04-03T18:10:51.441Z,16.98
2019-04-03T18:13:23.183Z,17.00
2019-04-03T18:18:41.407Z,16.95
2019-04-03T18:21:12.966Z,16.93
2019-04-03T18:23:41.807Z,16.91
2019-04-03T18:26:11.176Z,16.84
2019-04-03T18:28:40.733Z,16.74
2019-04-03T18:31:10.072Z,16.69
2019-04-03T18:33:39.489Z,16.70
2019-04-03T18:36:08.699Z,16.66
2019-04-03T18:38:38.545Z,16.65
2019-04-03T18:41:08.894Z,16.61
2019-04-03T18:43:38.901Z,16.59
2019-04-03T18:46:08.131Z,16.59
2019-04-03T18:48:37.667Z,16.51
2019-04-03T18:51:07.310Z,16.44
2019-04-03T18:53:36.555Z,16.48
2019-04-03T18:56:05.965Z,16.40
2019-04-03T18:58:35.177Z,16.41
2019-04-03T19:01:04.466Z,16.38
2019-04-03T19:03:36.192Z,16.33
2019-04-03T19:06:04.664Z,16.29
2019-04-03T19:08:33.858Z,16.29
2019-04-03T19:11:07.631Z,16.29
2019-04-03T19:13:34.141Z,16.23
2019-04-03T19:16:03.390Z,16.18
2019-04-03T19:18:32.599Z,16.18
2019-04-03T19:21:01.798Z,16.18
2019-04-03T19:23:31.351Z,16.17
2019-04-03T19:26:00.575Z,16.16
2019-04-03T19:28:29.825Z,16.17
2019-04-03T19:30:59.045Z,16.12
2019-04-03T19:33:28.363Z,16.08
2019-04-03T19:35:58.652Z,16.08
2019-04-03T19:38:28.559Z,16.08
2019-04-03T19:40:57.755Z,16.07
2019-04-03T19:43:27.067Z,16.04
2019-04-03T19:49:05.328Z,15.93
2019-04-03T19:51:37.194Z,15.94
2019-04-03T19:54:05.989Z,15.93
2019-04-03T19:56:35.270Z,15.88
2019-04-03T19:59:04.963Z,15.87
2019-04-03T20:01:38.770Z,15.75
2019-04-03T20:04:06.532Z,15.74
2019-04-03T20:09:49.922Z,15.12
2019-04-03T20:12:19.118Z,14.29
2019-04-03T20:14:57.891Z,13.37
2019-04-03T20:17:19.789Z,12.91
2019-04-03T20:19:48.971Z,12.38
2019-04-03T20:22:18.230Z,12.10
2019-04-03T20:24:59.454Z,11.81
2019-04-03T20:27:18.980Z,11.29
2019-04-03T20:29:48.891Z,10.89
2019-04-03T20:32:18.155Z,10.65
2019-04-03T20:34:47.372Z,10.60
2019-04-03T20:37:16.644Z,10.33
2019-04-03T20:39:46.133Z,10.43
2019-04-03T20:42:15.381Z,10.36
2019-04-03T20:44:48.001Z,10.31
2019-04-03T20:47:15.544Z,10.09
2019-04-03T20:49:44.739Z,9.96
2019-04-03T20:52:14.064Z,9.76
2019-04-03T20:54:43.264Z,9.68
2019-04-03T20:57:13.606Z,9.74
2019-04-03T20:59:52.526Z,9.54
2019-04-03T21:02:14.450Z,9.56
2019-04-03T21:04:46.471Z,9.60
2019-04-03T21:07:14.602Z,9.59
2019-04-03T21:09:43.835Z,9.74
2019-04-03T21:12:13.031Z,9.40
2019-04-03T21:14:42.273Z,9.46
2019-04-03T21:17:11.465Z,9.25
2019-04-03T21:19:40.715Z,9.28
2019-04-03T21:22:09.893Z,9.38
2019-04-03T21:27:34.129Z,9.47
2019-04-03T21:30:03.480Z,9.51
2019-04-03T21:32:32.679Z,9.58
2019-04-03T21:37:39.693Z,9.45
2019-04-03T21:40:07.698Z,9.33
2019-04-03T21:42:36.908Z,9.11
2019-04-03T21:45:07.508Z,9.18
2019-04-03T21:47:37.370Z,9.23
2019-04-03T21:50:46.001Z,9.21
2019-04-03T21:53:15.241Z,9.27
2019-04-03T21:55:44.489Z,9.14
2019-04-03T21:58:13.673Z,9.04
2019-04-03T22:04:00.954Z,8.73
2019-04-03T22:06:30.608Z,8.86
2019-04-03T22:09:00.673Z,8.76
2019-04-03T22:11:30.843Z,8.56
2019-04-03T22:14:00.043Z,8.58
2019-04-03T22:16:29.400Z,8.43
2019-04-03T22:18:58.586Z,8.51
2019-04-03T22:21:27.859Z,8.88
2019-04-03T22:23:57.104Z,9.05
2019-04-03T22:26:26.635Z,9.38
2019-04-03T22:28:55.900Z,9.43
2019-04-03T22:31:25.441Z,9.31
2019-04-03T22:33:54.702Z,9.00
2019-04-03T22:36:24.201Z,9.18
2019-04-03T22:38:53.471Z,9.49
2019-04-03T22:41:22.686Z,9.49
2019-04-03T22:43:51.935Z,9.40
2019-04-03T22:46:22.124Z,9.11
2019-04-03T22:48:52.495Z,8.95
2019-04-03T22:51:21.737Z,8.77
2019-04-03T22:54:02.464Z,8.80
2019-04-03T22:56:31.789Z,8.60
2019-04-03T22:59:01.357Z,8.51
2019-04-03T23:01:30.565Z,8.17
2019-04-03T23:03:59.835Z,8.13
2019-04-03T23:06:29.083Z,7.95
2019-04-03T23:08:58.349Z,7.85
2019-04-03T23:11:27.563Z,7.93
2019-04-03T23:13:56.839Z,8.01
2019-04-03T23:16:26.057Z,8.31
2019-04-03T23:18:55.363Z,8.55
2019-04-03T23:21:24.571Z,8.85
2019-04-03T23:23:53.838Z,8.79
2019-04-03T23:26:23.179Z,8.81
2019-04-03T23:28:52.387Z,8.93
2019-04-03T23:31:21.974Z,8.91
2019-04-03T23:33:51.182Z,8.89
2019-04-03T23:36:21.084Z,8.67
2019-04-03T23:38:51.400Z,8.35
2019-04-03T23:41:20.639Z,8.21
2019-04-03T23:43:49.862Z,8.32
2019-04-03T23:46:19.113Z,8.34
2019-04-03T23:48:49.029Z,8.42
2019-04-03T23:51:23.563Z,8.54
2019-04-03T23:53:50.773Z,8.40
2019-04-03T23:56:20.277Z,8.37
2019-04-03T23:58:49.803Z,8.54
